sensor_id;sensor_type;location;lat;lon;timestamp;P1;P2;P0
76101;PMS7003;64830;46.910;6.354;2023-03-11T00:00:54;0.00;0.00;0.00
76101;PMS7003;64830;46.910;6.354;2023-03-11T00:03:20;0.00;0.00;0.00
76101;PMS7003;64830;46.910;6.354;2023-03-11T00:05:50;0.00;0.00;0.00
76101;PMS7003;64830;46.910;6.354;2023-03-11T00:08:17;0.00;0.00;0.00
76101;PMS7003;64830;46.910;6.354;2023-03-11T00:10:46;0.25;0.25;0.25
76101;PMS7003;64830;46.910;6.354;2023-03-11T00:13:13;0.00;0.00;0.00
76101;PMS7003;64830;46.910;6.354;2023-03-11T00:15:40;0.00;0.00;0.00
76101;PMS7003;64830;46.910;6.354;2023-03-11T00:18:07;0.00;0.00;0.00
76101;PMS7003;64830;46.910;6.354;2023-03-11T00:20:34;1.00;0.00;0.00
76101;PMS7003;64830;46.910;6.354;2023-03-11T00:23:01;0.00;0.00;0.00
76101;PMS7003;64830;46.910;6.354;2023-03-11T00:25:28;0.00;0.00;0.00
76101;PMS7003;64830;46.910;6.354;2023-03-11T00:27:54;0.00;0.00;0.00
76101;PMS7003;64830;46.910;6.354;2023-03-11T00:30:21;0.50;0.00;0.00
76101;PMS7003;64830;46.910;6.354;2023-03-11T00:32:48;0.00;0.00;0.00
76101;PMS7003;64830;46.910;6.354;2023-03-11T00:35:19;0.00;0.00;0.00
76101;PMS7003;64830;46.910;6.354;2023-03-11T00:37:52;0.00;0.00;0.00
76101;PMS7003;64830;46.910;6.354;2023-03-11T00:40:20;0.00;0.00;0.00
76101;PMS7003;64830;46.910;6.354;2023-03-11T00:42:46;0.00;0.00;0.00
76101;PMS7003;64830;46.910;6.354;2023-03-11T00:45:12;0.00;0.00;0.00
76101;PMS7003;64830;46.910;6.354;2023-03-11T00:47:38;0.00;0.00;0.00
76101;PMS7003;64830;46.910;6.354;2023-03-11T00:50:04;0.00;0.00;0.00
76101;PMS7003;64830;46.910;6.354;2023-03-11T00:52:31;0.00;0.00;0.00
76101;PMS7003;64830;46.910;6.354;2023-03-11T00:54:59;0.00;0.00;0.00
76101;PMS7003;64830;46.910;6.354;2023-03-11T00:57:25;0.00;0.00;0.00
76101;PMS7003;64830;46.910;6.354;2023-03-11T00:59:53;0.00;0.00;0.00
76101;PMS7003;64830;46.910;6.354;2023-03-11T01:02:19;0.00;0.00;0.00
76101;PMS7003;64830;46.910;6.354;2023-03-11T01:04:44;0.00;0.00;0.00
76101;PMS7003;64830;46.910;6.354;2023-03-11T01:07:09;0.00;0.00;0.00
76101;PMS7003;64830;46.910;6.354;2023-03-11T01:09:35;0.00;0.00;0.00
76101;PMS7003;64830;46.910;6.354;2023-03-11T01:12:00;0.00;0.00;0.00
76101;PMS7003;64830;46.910;6.354;2023-03-11T01:14:25;1.00;0.00;0.00
76101;PMS7003;64830;46.910;6.354;2023-03-11T01:16:51;0.00;0.00;0.00
76101;PMS7003;64830;46.910;6.354;2023-03-11T01:19:17;0.00;0.00;0.00
76101;PMS7003;64830;46.910;6.354;2023-03-11T01:21:43;1.00;1.00;0.00
76101;PMS7003;64830;46.910;6.354;2023-03-11T01:24:08;0.75;0.75;0.00
76101;PMS7003;64830;46.910;6.354;2023-03-11T01:26:34;0.00;0.00;0.00
76101;PMS7003;64830;46.910;6.354;2023-03-11T01:28:59;1.00;1.00;0.00
76101;PMS7003;64830;46.910;6.354;2023-03-11T01:31:24;0.00;0.00;0.00
76101;PMS7003;64830;46.910;6.354;2023-03-11T01:33:50;0.00;0.00;0.00
76101;PMS7003;64830;46.910;6.354;2023-03-11T01:36:15;0.00;0.00;0.00
76101;PMS7003;64830;46.910;6.354;2023-03-11T01:38:41;0.00;0.00;0.00
76101;PMS7003;64830;46.910;6.354;2023-03-11T01:41:06;1.00;0.00;0.00
76101;PMS7003;64830;46.910;6.354;2023-03-11T01:43:39;0.00;0.00;0.00
76101;PMS7003;64830;46.910;6.354;2023-03-11T01:46:10;1.00;1.00;0.50
76101;PMS7003;64830;46.910;6.354;2023-03-11T01:49:00;1.25;0.00;0.00
76101;PMS7003;64830;46.910;6.354;2023-03-11T01:51:29;0.00;0.00;0.00
76101;PMS7003;64830;46.910;6.354;2023-03-11T01:54:04;0.00;0.00;0.00
76101;PMS7003;64830;46.910;6.354;2023-03-11T01:56:35;0.00;0.00;0.00
76101;PMS7003;64830;46.910;6.354;2023-03-11T01:59:03;0.00;0.00;0.00
76101;PMS7003;64830;46.910;6.354;2023-03-11T02:01:30;0.00;0.00;0.00
76101;PMS7003;64830;46.910;6.354;2023-03-11T02:03:56;0.00;0.00;0.00
76101;PMS7003;64830;46.910;6.354;2023-03-11T02:06:22;0.00;0.00;0.00
76101;PMS7003;64830;46.910;6.354;2023-03-11T02:08:48;1.00;0.00;0.00
76101;PMS7003;64830;46.910;6.354;2023-03-11T02:11:15;0.75;0.00;0.00
76101;PMS7003;64830;46.910;6.354;2023-03-11T02:13:48;0.50;0.00;0.00
76101;PMS7003;64830;46.910;6.354;2023-03-11T02:16:16;0.00;0.00;0.00
76101;PMS7003;64830;46.910;6.354;2023-03-11T02:18:41;0.00;0.00;0.00
76101;PMS7003;64830;46.910;6.354;2023-03-11T02:29:26;0.00;0.00;0.00
76101;PMS7003;64830;46.910;6.354;2023-03-11T02:31:53;0.00;0.00;0.00
76101;PMS7003;64830;46.910;6.354;2023-03-11T02:34:22;0.00;0.00;0.00
76101;PMS7003;64830;46.910;6.354;2023-03-11T02:36:49;0.00;0.00;0.00
76101;PMS7003;64830;46.910;6.354;2023-03-11T02:39:15;0.00;0.00;0.00
76101;PMS7003;64830;46.910;6.354;2023-03-11T02:41:42;0.00;0.00;0.00
76101;PMS7003;64830;46.910;6.354;2023-03-11T02:44:10;0.00;0.00;0.00
76101;PMS7003;64830;46.910;6.354;2023-03-11T02:46:39;0.00;0.00;0.00
76101;PMS7003;64830;46.910;6.354;2023-03-11T02:49:06;0.00;0.00;0.00
76101;PMS7003;64830;46.910;6.354;2023-03-11T02:51:33;0.00;0.00;0.00
76101;PMS7003;64830;46.910;6.354;2023-03-11T02:53:59;0.00;0.00;0.00
76101;PMS7003;64830;46.910;6.354;2023-03-11T02:56:28;0.00;0.00;0.00
76101;PMS7003;64830;46.910;6.354;2023-03-11T02:58:54;0.00;0.00;0.00
76101;PMS7003;64830;46.910;6.354;2023-03-11T03:01:19;0.00;0.00;0.00
76101;PMS7003;64830;46.910;6.354;2023-03-11T03:03:45;0.00;0.00;0.00
76101;PMS7003;64830;46.910;6.354;2023-03-11T03:06:10;0.00;0.00;0.00
76101;PMS7003;64830;46.910;6.354;2023-03-11T03:08:36;0.00;0.00;0.00
76101;PMS7003;64830;46.910;6.354;2023-03-11T03:11:01;0.00;0.00;0.00
76101;PMS7003;64830;46.910;6.354;2023-03-11T03:13:27;0.00;0.00;0.00
76101;PMS7003;64830;46.910;6.354;2023-03-11T03:15:53;0.00;0.00;0.00
76101;PMS7003;64830;46.910;6.354;2023-03-11T03:18:18;0.00;0.00;0.00
76101;PMS7003;64830;46.910;6.354;2023-03-11T03:20:44;0.00;0.00;0.00
76101;PMS7003;64830;46.910;6.354;2023-03-11T03:23:09;0.00;0.00;0.00
76101;PMS7003;64830;46.910;6.354;2023-03-11T03:25:35;0.00;0.00;0.00
76101;PMS7003;64830;46.910;6.354;2023-03-11T03:28:00;0.00;0.00;0.00
76101;PMS7003;64830;46.910;6.354;2023-03-11T03:30:26;1.00;0.00;0.00
76101;PMS7003;64830;46.910;6.354;2023-03-11T03:32:53;0.00;0.00;0.00
76101;PMS7003;64830;46.910;6.354;2023-03-11T03:35:19;0.00;0.00;0.00
76101;PMS7003;64830;46.910;6.354;2023-03-11T03:37:44;0.00;0.00;0.00
76101;PMS7003;64830;46.910;6.354;2023-03-11T03:40:10;0.00;0.00;0.00
76101;PMS7003;64830;46.910;6.354;2023-03-11T03:42:36;0.00;0.00;0.00
76101;PMS7003;64830;46.910;6.354;2023-03-11T03:45:02;0.00;0.00;0.00
76101;PMS7003;64830;46.910;6.354;2023-03-11T03:47:30;0.00;0.00;0.00
76101;PMS7003;64830;46.910;6.354;2023-03-11T03:49:56;0.00;0.00;0.00
76101;PMS7003;64830;46.910;6.354;2023-03-11T03:52:22;0.00;0.00;0.00
76101;PMS7003;64830;46.910;6.354;2023-03-11T03:54:48;1.00;0.00;0.00
76101;PMS7003;64830;46.910;6.354;2023-03-11T03:57:14;0.00;0.00;0.00
76101;PMS7003;64830;46.910;6.354;2023-03-11T03:59:39;0.00;0.00;0.00
76101;PMS7003;64830;46.910;6.354;2023-03-11T04:02:05;0.00;0.00;0.00
76101;PMS7003;64830;46.910;6.354;2023-03-11T04:04:30;0.00;0.00;0.00
76101;PMS7003;64830;46.910;6.354;2023-03-11T04:06:56;0.00;0.00;0.00
76101;PMS7003;64830;46.910;6.354;2023-03-11T04:09:22;0.50;0.00;0.00
76101;PMS7003;64830;46.910;6.354;2023-03-11T04:11:47;0.25;0.25;0.00
76101;PMS7003;64830;46.910;6.354;2023-03-11T04:14:13;1.25;1.25;1.25
76101;PMS7003;64830;46.910;6.354;2023-03-11T04:16:38;7.50;7.50;5.25
76101;PMS7003;64830;46.910;6.354;2023-03-11T04:19:04;1.25;1.25;1.00
76101;PMS7003;64830;46.910;6.354;2023-03-11T04:21:30;0.00;0.00;0.00
76101;PMS7003;64830;46.910;6.354;2023-03-11T04:23:56;0.50;0.00;0.00
76101;PMS7003;64830;46.910;6.354;2023-03-11T04:26:21;0.75;0.25;0.00
76101;PMS7003;64830;46.910;6.354;2023-03-11T04:28:47;0.00;0.00;0.00
76101;PMS7003;64830;46.910;6.354;2023-03-11T04:31:12;0.00;0.00;0.00
76101;PMS7003;64830;46.910;6.354;2023-03-11T04:33:38;0.50;0.00;0.00
76101;PMS7003;64830;46.910;6.354;2023-03-11T04:36:04;1.00;0.00;0.00
76101;PMS7003;64830;46.910;6.354;2023-03-11T04:38:30;0.00;0.00;0.00
76101;PMS7003;64830;46.910;6.354;2023-03-11T04:41:02;2.00;0.00;0.00
76101;PMS7003;64830;46.910;6.354;2023-03-11T04:43:29;1.00;1.00;1.00
76101;PMS7003;64830;46.910;6.354;2023-03-11T04:45:55;1.75;1.00;1.00
76101;PMS7003;64830;46.910;6.354;2023-03-11T04:48:20;1.00;1.00;1.00
76101;PMS7003;64830;46.910;6.354;2023-03-11T04:50:46;0.50;0.50;0.25
76101;PMS7003;64830;46.910;6.354;2023-03-11T04:53:11;1.00;0.00;0.00
76101;PMS7003;64830;46.910;6.354;2023-03-11T04:55:37;0.00;0.00;0.00
76101;PMS7003;64830;46.910;6.354;2023-03-11T04:58:03;4.00;2.00;1.00
76101;PMS7003;64830;46.910;6.354;2023-03-11T05:00:28;6.25;6.25;4.75
76101;PMS7003;64830;46.910;6.354;2023-03-11T05:02:54;11.00;8.25;5.00
76101;PMS7003;64830;46.910;6.354;2023-03-11T05:05:19;8.25;8.25;5.00
76101;PMS7003;64830;46.910;6.354;2023-03-11T05:07:45;7.75;5.00;4.00
76101;PMS7003;64830;46.910;6.354;2023-03-11T05:10:11;2.00;2.00;1.75
76101;PMS7003;64830;46.910;6.354;2023-03-11T05:12:36;6.50;4.00;3.50
76101;PMS7003;64830;46.910;6.354;2023-03-11T05:15:02;16.50;11.75;6.75
76101;PMS7003;64830;46.910;6.354;2023-03-11T05:17:28;10.50;9.75;7.50
76101;PMS7003;64830;46.910;6.354;2023-03-11T05:19:53;4.00;4.00;2.00
76101;PMS7003;64830;46.910;6.354;2023-03-11T05:22:19;1.00;1.00;1.00
76101;PMS7003;64830;46.910;6.354;2023-03-11T05:24:45;4.00;1.00;1.00
76101;PMS7003;64830;46.910;6.354;2023-03-11T05:27:11;1.00;1.00;0.50
76101;PMS7003;64830;46.910;6.354;2023-03-11T05:29:37;0.50;0.50;0.00
76101;PMS7003;64830;46.910;6.354;2023-03-11T05:32:03;0.50;0.50;0.00
76101;PMS7003;64830;46.910;6.354;2023-03-11T05:34:28;1.25;1.25;0.25
76101;PMS7003;64830;46.910;6.354;2023-03-11T05:36:54;1.00;1.00;1.00
76101;PMS7003;64830;46.910;6.354;2023-03-11T05:39:19;2.00;2.00;1.25
76101;PMS7003;64830;46.910;6.354;2023-03-11T05:41:44;1.75;1.75;1.25
76101;PMS7003;64830;46.910;6.354;2023-03-11T05:44:10;4.00;4.00;1.75
76101;PMS7003;64830;46.910;6.354;2023-03-11T05:46:35;1.00;1.00;0.50
76101;PMS7003;64830;46.910;6.354;2023-03-11T05:49:00;5.25;4.75;1.50
76101;PMS7003;64830;46.910;6.354;2023-03-11T05:51:26;2.00;2.00;2.00
76101;PMS7003;64830;46.910;6.354;2023-03-11T05:53:52;2.50;1.75;1.00
76101;PMS7003;64830;46.910;6.354;2023-03-11T05:56:17;2.50;2.50;1.25
76101;PMS7003;64830;46.910;6.354;2023-03-11T05:58:44;2.00;2.00;1.25
76101;PMS7003;64830;46.910;6.354;2023-03-11T06:01:11;1.75;1.75;1.00
76101;PMS7003;64830;46.910;6.354;2023-03-11T06:03:39;5.75;4.50;3.50
76101;PMS7003;64830;46.910;6.354;2023-03-11T06:06:06;5.00;4.00;4.00
76101;PMS7003;64830;46.910;6.354;2023-03-11T06:08:33;5.75;4.00;2.00
76101;PMS7003;64830;46.910;6.354;2023-03-11T06:11:00;2.00;2.00;2.00
76101;PMS7003;64830;46.910;6.354;2023-03-11T06:13:29;4.00;4.00;1.75
76101;PMS7003;64830;46.910;6.354;2023-03-11T06:15:55;2.00;2.00;1.75
76101;PMS7003;64830;46.910;6.354;2023-03-11T06:18:20;5.25;4.25;2.00
76101;PMS7003;64830;46.910;6.354;2023-03-11T06:20:46;4.00;4.00;4.00
76101;PMS7003;64830;46.910;6.354;2023-03-11T06:23:11;5.00;4.75;3.50
76101;PMS7003;64830;46.910;6.354;2023-03-11T06:25:37;5.00;5.00;2.50
76101;PMS7003;64830;46.910;6.354;2023-03-11T06:28:02;4.75;4.00;3.00
76101;PMS7003;64830;46.910;6.354;2023-03-11T06:30:28;4.00;4.00;2.00
76101;PMS7003;64830;46.910;6.354;2023-03-11T06:32:53;3.50;1.00;1.00
76101;PMS7003;64830;46.910;6.354;2023-03-11T06:35:19;2.50;2.50;2.00
76101;PMS7003;64830;46.910;6.354;2023-03-11T06:37:45;7.75;5.00;4.00
76101;PMS7003;64830;46.910;6.354;2023-03-11T06:40:10;8.25;7.25;3.00
76101;PMS7003;64830;46.910;6.354;2023-03-11T06:42:36;10.25;8.50;7.50
76101;PMS7003;64830;46.910;6.354;2023-03-11T06:45:02;8.25;8.25;4.25
76101;PMS7003;64830;46.910;6.354;2023-03-11T06:47:27;15.25;12.00;8.00
76101;PMS7003;64830;46.910;6.354;2023-03-11T06:49:53;56.00;46.50;28.75
76101;PMS7003;64830;46.910;6.354;2023-03-11T06:52:18;8.50;8.00;5.50
76101;PMS7003;64830;46.910;6.354;2023-03-11T06:54:44;9.75;6.50;5.50
76101;PMS7003;64830;46.910;6.354;2023-03-11T06:57:10;1.50;1.00;0.25
76101;PMS7003;64830;46.910;6.354;2023-03-11T06:59:35;1.25;1.00;0.25
76101;PMS7003;64830;46.910;6.354;2023-03-11T07:02:04;1.00;1.00;1.00
76101;PMS7003;64830;46.910;6.354;2023-03-11T07:04:30;1.00;1.00;1.00
76101;PMS7003;64830;46.910;6.354;2023-03-11T07:06:56;4.00;4.00;2.00
76101;PMS7003;64830;46.910;6.354;2023-03-11T07:09:22;4.00;1.00;0.75
76101;PMS7003;64830;46.910;6.354;2023-03-11T07:11:49;2.00;2.00;1.25
76101;PMS7003;64830;46.910;6.354;2023-03-11T07:14:15;5.50;5.50;1.75
76101;PMS7003;64830;46.910;6.354;2023-03-11T07:16:43;3.00;2.50;2.00
76101;PMS7003;64830;46.910;6.354;2023-03-11T07:19:09;8.50;7.50;5.50
76101;PMS7003;64830;46.910;6.354;2023-03-11T07:21:35;10.25;8.50;6.00
76101;PMS7003;64830;46.910;6.354;2023-03-11T07:24:01;4.00;3.00;2.00
76101;PMS7003;64830;46.910;6.354;2023-03-11T07:26:27;9.75;9.75;7.50
76101;PMS7003;64830;46.910;6.354;2023-03-11T07:28:55;10.25;9.00;6.00
76101;PMS7003;64830;46.910;6.354;2023-03-11T07:31:31;12.75;12.00;9.50
76101;PMS7003;64830;46.910;6.354;2023-03-11T07:33:58;4.25;4.25;2.00
76101;PMS7003;64830;46.910;6.354;2023-03-11T07:36:25;2.00;1.25;1.00
76101;PMS7003;64830;46.910;6.354;2023-03-11T07:38:56;2.00;1.50;1.00
76101;PMS7003;64830;46.910;6.354;2023-03-11T07:41:27;3.00;1.00;1.00
76101;PMS7003;64830;46.910;6.354;2023-03-11T07:43:54;4.25;3.50;2.00
76101;PMS7003;64830;46.910;6.354;2023-03-11T07:46:21;2.00;2.00;2.00
76101;PMS7003;64830;46.910;6.354;2023-03-11T07:48:48;1.00;1.00;0.00
76101;PMS7003;64830;46.910;6.354;2023-03-11T07:51:15;1.00;1.00;1.00
76101;PMS7003;64830;46.910;6.354;2023-03-11T07:53:43;1.25;0.75;0.00
76101;PMS7003;64830;46.910;6.354;2023-03-11T07:56:10;0.00;0.00;0.00
76101;PMS7003;64830;46.910;6.354;2023-03-11T07:58:37;0.50;0.00;0.00
76101;PMS7003;64830;46.910;6.354;2023-03-11T08:01:04;1.25;0.00;0.00
76101;PMS7003;64830;46.910;6.354;2023-03-11T08:03:31;3.00;0.75;0.00
76101;PMS7003;64830;46.910;6.354;2023-03-11T08:05:57;0.00;0.00;0.00
76101;PMS7003;64830;46.910;6.354;2023-03-11T08:08:22;1.00;1.00;1.00
76101;PMS7003;64830;46.910;6.354;2023-03-11T08:10:48;1.25;1.25;1.00
76101;PMS7003;64830;46.910;6.354;2023-03-11T08:13:14;5.25;1.75;1.00
76101;PMS7003;64830;46.910;6.354;2023-03-11T08:15:39;2.00;2.00;0.75
76101;PMS7003;64830;46.910;6.354;2023-03-11T08:18:04;4.00;2.00;1.75
76101;PMS7003;64830;46.910;6.354;2023-03-11T08:20:30;4.00;4.00;1.50
76101;PMS7003;64830;46.910;6.354;2023-03-11T08:22:55;6.50;6.50;4.50
76101;PMS7003;64830;46.910;6.354;2023-03-11T08:25:21;6.00;4.75;4.75
76101;PMS7003;64830;46.910;6.354;2023-03-11T08:27:46;7.00;4.50;3.00
76101;PMS7003;64830;46.910;6.354;2023-03-11T08:30:12;5.00;5.00;4.00
76101;PMS7003;64830;46.910;6.354;2023-03-11T08:32:38;5.25;5.00;4.25
76101;PMS7003;64830;46.910;6.354;2023-03-11T08:35:03;8.75;6.50;5.00
76101;PMS7003;64830;46.910;6.354;2023-03-11T08:37:29;9.25;9.25;7.50
76101;PMS7003;64830;46.910;6.354;2023-03-11T08:39:55;8.00;8.00;6.00
76101;PMS7003;64830;46.910;6.354;2023-03-11T08:42:21;7.25;5.50;5.25
76101;PMS7003;64830;46.910;6.354;2023-03-11T08:44:47;10.50;8.75;6.50
76101;PMS7003;64830;46.910;6.354;2023-03-11T08:47:12;9.00;8.00;6.00
76101;PMS7003;64830;46.910;6.354;2023-03-11T08:49:38;8.75;8.75;5.75
76101;PMS7003;64830;46.910;6.354;2023-03-11T08:52:03;6.00;5.00;4.00
76101;PMS7003;64830;46.910;6.354;2023-03-11T08:54:29;6.00;5.00;1.00
76101;PMS7003;64830;46.910;6.354;2023-03-11T08:56:55;7.00;5.75;4.75
76101;PMS7003;64830;46.910;6.354;2023-03-11T08:59:20;5.25;5.00;4.00
76101;PMS7003;64830;46.910;6.354;2023-03-11T09:01:46;6.00;5.00;2.00
76101;PMS7003;64830;46.910;6.354;2023-03-11T09:04:11;7.00;5.00;4.25
76101;PMS7003;64830;46.910;6.354;2023-03-11T09:06:41;8.00;8.00;6.50
76101;PMS7003;64830;46.910;6.354;2023-03-11T09:09:08;11.50;9.50;8.50
76101;PMS7003;64830;46.910;6.354;2023-03-11T09:11:35;16.25;14.25;9.50
76101;PMS7003;64830;46.910;6.354;2023-03-11T09:14:01;14.00;12.75;9.75
76101;PMS7003;64830;46.910;6.354;2023-03-11T09:16:27;14.50;14.50;9.50
76101;PMS7003;64830;46.910;6.354;2023-03-11T09:18:52;13.50;11.25;8.50
76101;PMS7003;64830;46.910;6.354;2023-03-11T09:21:18;18.00;18.00;12.00
76101;PMS7003;64830;46.910;6.354;2023-03-11T09:23:44;12.25;10.25;8.25
76101;PMS7003;64830;46.910;6.354;2023-03-11T09:26:10;12.75;12.00;9.50
76101;PMS7003;64830;46.910;6.354;2023-03-11T09:28:36;16.00;13.25;10.00
76101;PMS7003;64830;46.910;6.354;2023-03-11T09:31:02;17.25;13.00;9.25
76101;PMS7003;64830;46.910;6.354;2023-03-11T09:33:27;14.75;14.25;12.00
76101;PMS7003;64830;46.910;6.354;2023-03-11T09:35:53;12.25;8.75;6.00
76101;PMS7003;64830;46.910;6.354;2023-03-11T09:38:18;16.75;14.00;10.00
76101;PMS7003;64830;46.910;6.354;2023-03-11T09:49:07;22.50;15.75;11.25
76101;PMS7003;64830;46.910;6.354;2023-03-11T09:51:46;14.50;13.50;9.50
76101;PMS7003;64830;46.910;6.354;2023-03-11T09:54:21;20.75;17.25;13.50
76101;PMS7003;64830;46.910;6.354;2023-03-11T09:56:48;18.00;13.75;8.50
76101;PMS7003;64830;46.910;6.354;2023-03-11T09:59:16;18.00;14.00;10.00
76101;PMS7003;64830;46.910;6.354;2023-03-11T10:01:55;13.75;12.50;9.00
76101;PMS7003;64830;46.910;6.354;2023-03-11T10:04:41;16.00;15.75;13.00
76101;PMS7003;64830;46.910;6.354;2023-03-11T10:07:14;3.50;2.00;1.75
76101;PMS7003;64830;46.910;6.354;2023-03-11T10:09:50;16.75;13.75;10.25
76101;PMS7003;64830;46.910;6.354;2023-03-11T10:29:06;14.25;13.00;9.25
76101;PMS7003;64830;46.910;6.354;2023-03-11T10:36:37;1.00;1.00;1.00
76101;PMS7003;64830;46.910;6.354;2023-03-11T10:39:15;3.00;1.25;1.00
76101;PMS7003;64830;46.910;6.354;2023-03-11T10:41:49;1.50;1.50;1.00
76101;PMS7003;64830;46.910;6.354;2023-03-11T10:44:37;5.00;3.00;2.00
76101;PMS7003;64830;46.910;6.354;2023-03-11T10:47:04;3.00;3.00;2.00
76101;PMS7003;64830;46.910;6.354;2023-03-11T10:49:36;6.50;6.50;5.00
76101;PMS7003;64830;46.910;6.354;2023-03-11T10:52:02;10.00;8.25;6.00
76101;PMS7003;64830;46.910;6.354;2023-03-11T10:54:32;6.00;5.75;4.75
76101;PMS7003;64830;46.910;6.354;2023-03-11T10:57:02;10.75;7.00;6.00
76101;PMS7003;64830;46.910;6.354;2023-03-11T10:59:31;3.00;3.00;3.00
76101;PMS7003;64830;46.910;6.354;2023-03-11T11:02:29;6.00;6.00;5.25
76101;PMS7003;64830;46.910;6.354;2023-03-11T11:07:42;5.75;5.75;5.00
76101;PMS7003;64830;46.910;6.354;2023-03-11T11:15:29;7.75;5.50;3.75
76101;PMS7003;64830;46.910;6.354;2023-03-11T11:18:41;6.00;5.00;3.00
76101;PMS7003;64830;46.910;6.354;2023-03-11T11:21:13;2.00;2.00;2.00
76101;PMS7003;64830;46.910;6.354;2023-03-11T11:23:42;3.75;3.25;3.00
76101;PMS7003;64830;46.910;6.354;2023-03-11T11:28:45;10.50;5.50;5.25
76101;PMS7003;64830;46.910;6.354;2023-03-11T11:31:23;29.00;20.75;14.00
76101;PMS7003;64830;46.910;6.354;2023-03-11T11:36:15;7.75;6.00;5.00
76101;PMS7003;64830;46.910;6.354;2023-03-11T11:38:42;19.75;16.25;12.00
76101;PMS7003;64830;46.910;6.354;2023-03-11T11:41:09;14.50;12.75;10.00
76101;PMS7003;64830;46.910;6.354;2023-03-11T11:43:53;10.25;10.00;8.25
76101;PMS7003;64830;46.910;6.354;2023-03-11T11:46:52;14.00;10.00;7.00
76101;PMS7003;64830;46.910;6.354;2023-03-11T11:49:22;13.75;13.50;10.00
76101;PMS7003;64830;46.910;6.354;2023-03-11T11:54:37;7.00;6.50;5.75
76101;PMS7003;64830;46.910;6.354;2023-03-11T11:57:11;9.50;7.00;5.00
76101;PMS7003;64830;46.910;6.354;2023-03-11T11:59:39;9.75;8.75;7.00
76101;PMS7003;64830;46.910;6.354;2023-03-11T12:05:15;6.50;4.50;3.00
76101;PMS7003;64830;46.910;6.354;2023-03-11T12:10:21;3.50;2.25;1.75
76101;PMS7003;64830;46.910;6.354;2023-03-11T12:12:51;3.25;2.00;2.00
76101;PMS7003;64830;46.910;6.354;2023-03-11T12:15:51;2.25;2.25;1.75
76101;PMS7003;64830;46.910;6.354;2023-03-11T12:18:26;2.00;2.00;1.25
76101;PMS7003;64830;46.910;6.354;2023-03-11T12:23:45;2.75;2.00;1.75
76101;PMS7003;64830;46.910;6.354;2023-03-11T12:26:22;5.00;2.50;2.25
76101;PMS7003;64830;46.910;6.354;2023-03-11T12:31:49;5.75;2.75;2.00
76101;PMS7003;64830;46.910;6.354;2023-03-11T12:34:17;6.25;3.50;3.00
76101;PMS7003;64830;46.910;6.354;2023-03-11T12:36:45;5.75;3.00;2.75
76101;PMS7003;64830;46.910;6.354;2023-03-11T12:41:44;1.50;1.50;1.00
76101;PMS7003;64830;46.910;6.354;2023-03-11T12:44:20;5.50;5.00;4.00
76101;PMS7003;64830;46.910;6.354;2023-03-11T12:49:32;5.50;2.25;2.00
76101;PMS7003;64830;46.910;6.354;2023-03-11T12:57:12;3.00;3.00;2.00
76101;PMS7003;64830;46.910;6.354;2023-03-11T13:08:12;2.75;2.25;2.00
76101;PMS7003;64830;46.910;6.354;2023-03-11T13:10:44;5.50;3.50;2.75
76101;PMS7003;64830;46.910;6.354;2023-03-11T13:15:56;7.25;6.00;5.00
76101;PMS7003;64830;46.910;6.354;2023-03-11T13:18:43;9.00;5.50;5.00
76101;PMS7003;64830;46.910;6.354;2023-03-11T13:23:51;12.25;10.00;8.75
76101;PMS7003;64830;46.910;6.354;2023-03-11T13:31:50;9.00;6.25;5.00
76101;PMS7003;64830;46.910;6.354;2023-03-11T13:43:18;10.00;9.75;7.00
76101;PMS7003;64830;46.910;6.354;2023-03-11T13:46:30;10.00;8.00;6.00
76101;PMS7003;64830;46.910;6.354;2023-03-11T13:48:44;10.00;7.75;6.25
76101;PMS7003;64830;46.910;6.354;2023-03-11T13:51:16;4.75;1.00;1.00
76101;PMS7003;64830;46.910;6.354;2023-03-11T13:53:49;8.50;8.50;6.00
76101;PMS7003;64830;46.910;6.354;2023-03-11T13:56:21;8.25;8.25;6.75
76101;PMS7003;64830;46.910;6.354;2023-03-11T13:58:53;10.75;9.00;5.00
76101;PMS7003;64830;46.910;6.354;2023-03-11T14:01:18;8.50;6.75;6.00
76101;PMS7003;64830;46.910;6.354;2023-03-11T14:03:45;13.00;11.00;7.00
76101;PMS7003;64830;46.910;6.354;2023-03-11T14:06:12;11.00;10.50;8.00
76101;PMS7003;64830;46.910;6.354;2023-03-11T14:08:39;3.00;3.00;2.00
76101;PMS7003;64830;46.910;6.354;2023-03-11T14:13:45;11.00;10.75;7.00
76101;PMS7003;64830;46.910;6.354;2023-03-11T14:19:17;12.50;9.50;6.75
76101;PMS7003;64830;46.910;6.354;2023-03-11T14:21:43;16.75;15.00;9.00
76101;PMS7003;64830;46.910;6.354;2023-03-11T14:24:14;11.50;11.50;9.50
76101;PMS7003;64830;46.910;6.354;2023-03-11T14:26:42;13.00;10.00;7.25
76101;PMS7003;64830;46.910;6.354;2023-03-11T14:29:14;9.50;7.25;5.25
76101;PMS7003;64830;46.910;6.354;2023-03-11T14:31:43;10.00;9.00;7.00
76101;PMS7003;64830;46.910;6.354;2023-03-11T14:41:46;10.50;10.25;6.75
76101;PMS7003;64830;46.910;6.354;2023-03-11T14:44:12;11.00;9.00;6.00
76101;PMS7003;64830;46.910;6.354;2023-03-11T14:46:38;9.50;9.50;7.00
76101;PMS7003;64830;46.910;6.354;2023-03-11T14:49:04;18.75;10.25;5.50
76101;PMS7003;64830;46.910;6.354;2023-03-11T14:51:36;29.25;18.00;8.50
76101;PMS7003;64830;46.910;6.354;2023-03-11T14:54:04;9.50;5.50;3.25
76101;PMS7003;64830;46.910;6.354;2023-03-11T14:56:36;18.00;10.00;5.50
76101;PMS7003;64830;46.910;6.354;2023-03-11T14:59:07;13.50;9.00;5.75
76101;PMS7003;64830;46.910;6.354;2023-03-11T15:01:50;25.50;16.00;7.00
76101;PMS7003;64830;46.910;6.354;2023-03-11T15:04:26;16.75;11.00;6.00
76101;PMS7003;64830;46.910;6.354;2023-03-11T15:06:56;21.75;16.00;5.25
76101;PMS7003;64830;46.910;6.354;2023-03-11T15:09:23;18.50;10.00;6.00
76101;PMS7003;64830;46.910;6.354;2023-03-11T15:11:53;18.25;8.75;6.00
76101;PMS7003;64830;46.910;6.354;2023-03-11T15:14:25;12.50;9.25;5.00
76101;PMS7003;64830;46.910;6.354;2023-03-11T15:17:17;12.00;10.00;6.75
76101;PMS7003;64830;46.910;6.354;2023-03-11T15:19:52;6.50;6.00;4.00
76101;PMS7003;64830;46.910;6.354;2023-03-11T15:22:23;21.25;10.75;6.75
76101;PMS7003;64830;46.910;6.354;2023-03-11T15:24:55;6.75;3.00;2.00
76101;PMS7003;64830;46.910;6.354;2023-03-11T15:29:57;25.75;12.00;8.00
76101;PMS7003;64830;46.910;6.354;2023-03-11T15:35:03;20.25;9.25;6.00
76101;PMS7003;64830;46.910;6.354;2023-03-11T15:37:44;12.00;7.25;5.00
76101;PMS7003;64830;46.910;6.354;2023-03-11T15:43:18;17.25;12.00;6.00
76101;PMS7003;64830;46.910;6.354;2023-03-11T15:45:45;8.00;5.00;2.00
76101;PMS7003;64830;46.910;6.354;2023-03-11T15:48:12;6.75;5.00;4.00
76101;PMS7003;64830;46.910;6.354;2023-03-11T15:50:48;15.50;9.50;3.50
76101;PMS7003;64830;46.910;6.354;2023-03-11T15:53:18;8.75;6.00;4.00
76101;PMS7003;64830;46.910;6.354;2023-03-11T15:55:44;16.50;12.00;7.25
76101;PMS7003;64830;46.910;6.354;2023-03-11T15:58:11;8.00;6.00;4.75
76101;PMS7003;64830;46.910;6.354;2023-03-11T16:00:51;9.50;7.75;4.75
76101;PMS7003;64830;46.910;6.354;2023-03-11T16:03:20;10.50;10.50;7.50
76101;PMS7003;64830;46.910;6.354;2023-03-11T16:05:45;10.50;10.50;6.00
76101;PMS7003;64830;46.910;6.354;2023-03-11T16:08:11;11.50;9.00;6.00
76101;PMS7003;64830;46.910;6.354;2023-03-11T16:10:37;25.25;12.50;7.25
76101;PMS7003;64830;46.910;6.354;2023-03-11T16:13:03;10.50;9.75;5.75
76101;PMS7003;64830;46.910;6.354;2023-03-11T16:15:31;10.50;9.00;8.00
76101;PMS7003;64830;46.910;6.354;2023-03-11T16:17:58;12.00;10.00;7.25
76101;PMS7003;64830;46.910;6.354;2023-03-11T16:20:26;17.00;6.00;3.75
76101;PMS7003;64830;46.910;6.354;2023-03-11T16:22:55;14.50;12.75;7.25
76101;PMS7003;64830;46.910;6.354;2023-03-11T16:25:30;10.50;8.25;6.00
76101;PMS7003;64830;46.910;6.354;2023-03-11T16:27:59;9.25;8.75;6.00